Terminal Aerodrome Forecast
Issued by NWS

Home | Current Version | Previous Version | Text Only | Print | Product List | Glossary On
Versions: 1 2 3 4 5 6 7 8 9 10 11 12 13 14 15 16 17 18
881
FTUS42 KGSP 281818 AAA
TAFGMU
TAF AMD
KGMU 281818Z 2818/2918 25014G20KT P6SM VCTS SCT040CB BKN200
      TEMPO 2818/2820 VRB15G30KT 2SM TSRA OVC025CB
     FM290200 23009KT P6SM BKN070 PROB30 2903/2906 4SM -TSRA
      OVC040CB
     FM291000 26005KT P6SM SCT070
     FM291500 01007KT P6SM FEW080=

USA.gov is the U.S. government's official web portal to all federal, state and local government web resources and services.